sensor_id;sensor_type;location;lat;lon;timestamp;P1;P2;P0
73241;PMS5003;65659;49.234;-2.094;2022-12-17T00:01:43;6;5;
73241;PMS5003;65659;49.234;-2.094;2022-12-17T00:04:09;5;4;
73241;PMS5003;65659;49.234;-2.094;2022-12-17T00:06:35;6;5;
73241;PMS5003;65659;49.234;-2.094;2022-12-17T00:09:01;4;4;
73241;PMS5003;65659;49.234;-2.094;2022-12-17T00:11:27;7;7;
73241;PMS5003;65659;49.234;-2.094;2022-12-17T00:13:52;5;5;
73241;PMS5003;65659;49.234;-2.094;2022-12-17T00:16:18;4;4;
73241;PMS5003;65659;49.234;-2.094;2022-12-17T00:18:44;7;7;
73241;PMS5003;65659;49.234;-2.094;2022-12-17T00:21:10;5;5;
73241;PMS5003;65659;49.234;-2.094;2022-12-17T00:23:35;6;6;
73241;PMS5003;65659;49.234;-2.094;2022-12-17T00:26:01;5;4;
73241;PMS5003;65659;49.234;-2.094;2022-12-17T00:28:27;6;6;
73241;PMS5003;65659;49.234;-2.094;2022-12-17T00:30:53;6;6;
73241;PMS5003;65659;49.234;-2.094;2022-12-17T00:33:18;6;6;
73241;PMS5003;65659;49.234;-2.094;2022-12-17T00:35:49;5;4;
73241;PMS5003;65659;49.234;-2.094;2022-12-17T00:38:13;7;6;
73241;PMS5003;65659;49.234;-2.094;2022-12-17T00:40:36;5;4;
73241;PMS5003;65659;49.234;-2.094;2022-12-17T00:43:02;5;5;
73241;PMS5003;65659;49.234;-2.094;2022-12-17T00:45:27;5;4;
73241;PMS5003;65659;49.234;-2.094;2022-12-17T00:47:53;3;3;
73241;PMS5003;65659;49.234;-2.094;2022-12-17T00:50:19;4;4;
73241;PMS5003;65659;49.234;-2.094;2022-12-17T00:52:45;5;5;
73241;PMS5003;65659;49.234;-2.094;2022-12-17T00:55:10;5;5;
73241;PMS5003;65659;49.234;-2.094;2022-12-17T00:57:36;4;4;
73241;PMS5003;65659;49.234;-2.094;2022-12-17T01:00:02;4;4;
73241;PMS5003;65659;49.234;-2.094;2022-12-17T01:02:27;4;3;
73241;PMS5003;65659;49.234;-2.094;2022-12-17T01:04:53;5;5;
73241;PMS5003;65659;49.234;-2.094;2022-12-17T01:07:19;4;4;
73241;PMS5003;65659;49.234;-2.094;2022-12-17T01:09:45;6;5;
73241;PMS5003;65659;49.234;-2.094;2022-12-17T01:12:10;5;5;
73241;PMS5003;65659;49.234;-2.094;2022-12-17T01:14:36;3;3;
73241;PMS5003;65659;49.234;-2.094;2022-12-17T01:17:02;4;4;
73241;PMS5003;65659;49.234;-2.094;2022-12-17T01:19:28;3;3;
73241;PMS5003;65659;49.234;-2.094;2022-12-17T01:21:53;5;4;
73241;PMS5003;65659;49.234;-2.094;2022-12-17T01:24:19;6;5;
73241;PMS5003;65659;49.234;-2.094;2022-12-17T01:26:45;5;5;
73241;PMS5003;65659;49.234;-2.094;2022-12-17T01:29:14;4;4;
73241;PMS5003;65659;49.234;-2.094;2022-12-17T01:31:37;3;3;
73241;PMS5003;65659;49.234;-2.094;2022-12-17T01:34:02;6;5;
73241;PMS5003;65659;49.234;-2.094;2022-12-17T01:36:28;4;3;
73241;PMS5003;65659;49.234;-2.094;2022-12-17T01:38:54;3;3;
73241;PMS5003;65659;49.234;-2.094;2022-12-17T01:41:20;5;4;
73241;PMS5003;65659;49.234;-2.094;2022-12-17T01:43:46;5;5;
73241;PMS5003;65659;49.234;-2.094;2022-12-17T01:46:11;4;4;
73241;PMS5003;65659;49.234;-2.094;2022-12-17T01:48:39;4;4;
73241;PMS5003;65659;49.234;-2.094;2022-12-17T01:51:03;4;4;
73241;PMS5003;65659;49.234;-2.094;2022-12-17T01:53:30;4;4;
73241;PMS5003;65659;49.234;-2.094;2022-12-17T01:55:54;3;3;
73241;PMS5003;65659;49.234;-2.094;2022-12-17T01:58:20;3;3;
73241;PMS5003;65659;49.234;-2.094;2022-12-17T02:00:46;4;4;
73241;PMS5003;65659;49.234;-2.094;2022-12-17T02:03:12;5;5;
73241;PMS5003;65659;49.234;-2.094;2022-12-17T02:05:39;4;4;
73241;PMS5003;65659;49.234;-2.094;2022-12-17T02:08:04;3;3;
73241;PMS5003;65659;49.234;-2.094;2022-12-17T02:10:31;4;4;
73241;PMS5003;65659;49.234;-2.094;2022-12-17T02:12:56;3;2;
73241;PMS5003;65659;49.234;-2.094;2022-12-17T02:15:22;4;3;
73241;PMS5003;65659;49.234;-2.094;2022-12-17T02:17:47;3;3;
73241;PMS5003;65659;49.234;-2.094;2022-12-17T02:20:19;4;3;
73241;PMS5003;65659;49.234;-2.094;2022-12-17T02:22:41;3;3;
73241;PMS5003;65659;49.234;-2.094;2022-12-17T02:25:05;5;5;
73241;PMS5003;65659;49.234;-2.094;2022-12-17T02:27:29;4;4;
73241;PMS5003;65659;49.234;-2.094;2022-12-17T02:29:56;3;3;
73241;PMS5003;65659;49.234;-2.094;2022-12-17T02:32:21;4;4;
73241;PMS5003;65659;49.234;-2.094;2022-12-17T02:34:47;4;4;
73241;PMS5003;65659;49.234;-2.094;2022-12-17T02:37:13;5;4;
73241;PMS5003;65659;49.234;-2.094;2022-12-17T02:39:39;2;2;
73241;PMS5003;65659;49.234;-2.094;2022-12-17T02:42:04;3;3;
73241;PMS5003;65659;49.234;-2.094;2022-12-17T02:44:30;3;3;
73241;PMS5003;65659;49.234;-2.094;2022-12-17T02:46:56;4;3;
73241;PMS5003;65659;49.234;-2.094;2022-12-17T02:49:22;5;5;
73241;PMS5003;65659;49.234;-2.094;2022-12-17T02:51:47;3;3;
73241;PMS5003;65659;49.234;-2.094;2022-12-17T02:54:13;5;4;
73241;PMS5003;65659;49.234;-2.094;2022-12-17T02:56:39;5;5;
73241;PMS5003;65659;49.234;-2.094;2022-12-17T02:59:05;3;3;
73241;PMS5003;65659;49.234;-2.094;2022-12-17T03:01:30;3;3;
73241;PMS5003;65659;49.234;-2.094;2022-12-17T03:03:56;3;3;
73241;PMS5003;65659;49.234;-2.094;2022-12-17T03:06:22;5;3;
73241;PMS5003;65659;49.234;-2.094;2022-12-17T03:08:48;4;4;
73241;PMS5003;65659;49.234;-2.094;2022-12-17T03:11:13;3;3;
73241;PMS5003;65659;49.234;-2.094;2022-12-17T03:13:39;4;3;
73241;PMS5003;65659;49.234;-2.094;2022-12-17T03:16:07;3;3;
73241;PMS5003;65659;49.234;-2.094;2022-12-17T03:18:31;4;4;
73241;PMS5003;65659;49.234;-2.094;2022-12-17T03:20:56;3;2;
73241;PMS5003;65659;49.234;-2.094;2022-12-17T03:23:22;3;3;
73241;PMS5003;65659;49.234;-2.094;2022-12-17T03:25:48;4;4;
73241;PMS5003;65659;49.234;-2.094;2022-12-17T03:28:14;3;3;
73241;PMS5003;65659;49.234;-2.094;2022-12-17T03:30:40;4;4;
73241;PMS5003;65659;49.234;-2.094;2022-12-17T03:33:06;3;3;
73241;PMS5003;65659;49.234;-2.094;2022-12-17T03:35:31;3;3;
73241;PMS5003;65659;49.234;-2.094;2022-12-17T03:37:57;4;3;
73241;PMS5003;65659;49.234;-2.094;2022-12-17T03:40:23;3;3;
73241;PMS5003;65659;49.234;-2.094;2022-12-17T03:42:48;2;2;
73241;PMS5003;65659;49.234;-2.094;2022-12-17T03:45:14;4;4;
73241;PMS5003;65659;49.234;-2.094;2022-12-17T03:47:40;4;4;
73241;PMS5003;65659;49.234;-2.094;2022-12-17T03:50:06;2;2;
73241;PMS5003;65659;49.234;-2.094;2022-12-17T03:52:32;5;5;
73241;PMS5003;65659;49.234;-2.094;2022-12-17T03:54:57;3;2;
73241;PMS5003;65659;49.234;-2.094;2022-12-17T03:57:23;4;3;
73241;PMS5003;65659;49.234;-2.094;2022-12-17T03:59:49;3;3;
73241;PMS5003;65659;49.234;-2.094;2022-12-17T04:02:15;4;4;
73241;PMS5003;65659;49.234;-2.094;2022-12-17T04:04:40;4;3;
73241;PMS5003;65659;49.234;-2.094;2022-12-17T04:07:06;3;3;
73241;PMS5003;65659;49.234;-2.094;2022-12-17T04:09:32;2;1;
73241;PMS5003;65659;49.234;-2.094;2022-12-17T04:11:58;2;2;
73241;PMS5003;65659;49.234;-2.094;2022-12-17T04:14:28;3;3;
73241;PMS5003;65659;49.234;-2.094;2022-12-17T04:16:49;3;3;
73241;PMS5003;65659;49.234;-2.094;2022-12-17T04:19:15;3;3;
73241;PMS5003;65659;49.234;-2.094;2022-12-17T04:21:41;4;3;
73241;PMS5003;65659;49.234;-2.094;2022-12-17T04:24:07;2;2;
73241;PMS5003;65659;49.234;-2.094;2022-12-17T04:26:32;3;3;
73241;PMS5003;65659;49.234;-2.094;2022-12-17T04:28:58;2;2;
73241;PMS5003;65659;49.234;-2.094;2022-12-17T04:31:24;2;2;
73241;PMS5003;65659;49.234;-2.094;2022-12-17T04:33:50;2;2;
73241;PMS5003;65659;49.234;-2.094;2022-12-17T04:36:16;3;3;
73241;PMS5003;65659;49.234;-2.094;2022-12-17T04:38:41;3;3;
73241;PMS5003;65659;49.234;-2.094;2022-12-17T04:41:07;2;2;
73241;PMS5003;65659;49.234;-2.094;2022-12-17T04:43:33;2;2;
73241;PMS5003;65659;49.234;-2.094;2022-12-17T04:45:59;5;4;
73241;PMS5003;65659;49.234;-2.094;2022-12-17T04:48:24;3;3;
73241;PMS5003;65659;49.234;-2.094;2022-12-17T04:50:50;3;3;
73241;PMS5003;65659;49.234;-2.094;2022-12-17T04:53:16;4;3;
73241;PMS5003;65659;49.234;-2.094;2022-12-17T04:55:42;3;3;
73241;PMS5003;65659;49.234;-2.094;2022-12-17T04:58:08;3;3;
73241;PMS5003;65659;49.234;-2.094;2022-12-17T05:00:33;4;4;
73241;PMS5003;65659;49.234;-2.094;2022-12-17T05:03:03;3;3;
73241;PMS5003;65659;49.234;-2.094;2022-12-17T05:05:25;3;3;
73241;PMS5003;65659;49.234;-2.094;2022-12-17T05:07:51;4;4;
73241;PMS5003;65659;49.234;-2.094;2022-12-17T05:10:16;3;2;
73241;PMS5003;65659;49.234;-2.094;2022-12-17T05:12:42;2;2;
73241;PMS5003;65659;49.234;-2.094;2022-12-17T05:15:08;2;2;
73241;PMS5003;65659;49.234;-2.094;2022-12-17T05:17:34;2;2;
73241;PMS5003;65659;49.234;-2.094;2022-12-17T05:19:59;3;3;
73241;PMS5003;65659;49.234;-2.094;2022-12-17T05:22:25;3;2;
73241;PMS5003;65659;49.234;-2.094;2022-12-17T05:24:51;3;3;
73241;PMS5003;65659;49.234;-2.094;2022-12-17T05:27:17;2;2;
73241;PMS5003;65659;49.234;-2.094;2022-12-17T05:29:42;3;3;
73241;PMS5003;65659;49.234;-2.094;2022-12-17T05:32:08;3;3;
73241;PMS5003;65659;49.234;-2.094;2022-12-17T05:34:34;3;3;
73241;PMS5003;65659;49.234;-2.094;2022-12-17T05:37:00;3;3;
73241;PMS5003;65659;49.234;-2.094;2022-12-17T05:39:25;2;2;
73241;PMS5003;65659;49.234;-2.094;2022-12-17T05:41:51;1;1;
73241;PMS5003;65659;49.234;-2.094;2022-12-17T05:44:17;3;3;
73241;PMS5003;65659;49.234;-2.094;2022-12-17T05:46:43;2;2;
73241;PMS5003;65659;49.234;-2.094;2022-12-17T05:49:09;3;3;
73241;PMS5003;65659;49.234;-2.094;2022-12-17T05:51:34;2;2;
73241;PMS5003;65659;49.234;-2.094;2022-12-17T05:54:00;3;2;
73241;PMS5003;65659;49.234;-2.094;2022-12-17T05:56:26;1;1;
73241;PMS5003;65659;49.234;-2.094;2022-12-17T05:58:52;2;2;
73241;PMS5003;65659;49.234;-2.094;2022-12-17T06:01:17;3;3;
73241;PMS5003;65659;49.234;-2.094;2022-12-17T06:03:44;3;3;
73241;PMS5003;65659;49.234;-2.094;2022-12-17T06:06:09;2;2;
73241;PMS5003;65659;49.234;-2.094;2022-12-17T06:08:35;2;2;
73241;PMS5003;65659;49.234;-2.094;2022-12-17T06:11:00;3;2;
73241;PMS5003;65659;49.234;-2.094;2022-12-17T06:13:26;2;2;
73241;PMS5003;65659;49.234;-2.094;2022-12-17T06:15:52;3;3;
73241;PMS5003;65659;49.234;-2.094;2022-12-17T06:18:18;2;2;
73241;PMS5003;65659;49.234;-2.094;2022-12-17T06:20:44;1;1;
73241;PMS5003;65659;49.234;-2.094;2022-12-17T06:23:09;1;1;
73241;PMS5003;65659;49.234;-2.094;2022-12-17T06:25:35;1;1;
73241;PMS5003;65659;49.234;-2.094;2022-12-17T06:28:01;2;2;
73241;PMS5003;65659;49.234;-2.094;2022-12-17T06:30:27;3;3;
73241;PMS5003;65659;49.234;-2.094;2022-12-17T06:35:18;2;2;
73241;PMS5003;65659;49.234;-2.094;2022-12-17T06:37:44;2;2;
73241;PMS5003;65659;49.234;-2.094;2022-12-17T06:40:10;0;0;
73241;PMS5003;65659;49.234;-2.094;2022-12-17T06:42:35;1;1;
73241;PMS5003;65659;49.234;-2.094;2022-12-17T06:45:01;1;1;
73241;PMS5003;65659;49.234;-2.094;2022-12-17T06:47:27;3;2;
73241;PMS5003;65659;49.234;-2.094;2022-12-17T06:49:53;3;3;
73241;PMS5003;65659;49.234;-2.094;2022-12-17T06:52:18;2;2;
73241;PMS5003;65659;49.234;-2.094;2022-12-17T06:54:45;2;2;
73241;PMS5003;65659;49.234;-2.094;2022-12-17T06:57:10;2;2;
73241;PMS5003;65659;49.234;-2.094;2022-12-17T06:59:36;2;1;
73241;PMS5003;65659;49.234;-2.094;2022-12-17T07:02:12;2;2;
73241;PMS5003;65659;49.234;-2.094;2022-12-17T07:04:27;2;2;
73241;PMS5003;65659;49.234;-2.094;2022-12-17T07:06:53;3;3;
73241;PMS5003;65659;49.234;-2.094;2022-12-17T07:09:19;2;2;
73241;PMS5003;65659;49.234;-2.094;2022-12-17T07:11:45;2;2;
73241;PMS5003;65659;49.234;-2.094;2022-12-17T07:14:10;3;3;
73241;PMS5003;65659;49.234;-2.094;2022-12-17T07:16:36;2;2;
73241;PMS5003;65659;49.234;-2.094;2022-12-17T07:19:02;2;2;
73241;PMS5003;65659;49.234;-2.094;2022-12-17T07:21:28;4;3;
73241;PMS5003;65659;49.234;-2.094;2022-12-17T07:23:54;3;3;
73241;PMS5003;65659;49.234;-2.094;2022-12-17T07:26:19;3;3;
73241;PMS5003;65659;49.234;-2.094;2022-12-17T07:28:45;2;2;
73241;PMS5003;65659;49.234;-2.094;2022-12-17T07:31:11;1;1;
73241;PMS5003;65659;49.234;-2.094;2022-12-17T07:33:37;2;2;
73241;PMS5003;65659;49.234;-2.094;2022-12-17T07:36:03;2;2;
73241;PMS5003;65659;49.234;-2.094;2022-12-17T07:38:28;1;1;
73241;PMS5003;65659;49.234;-2.094;2022-12-17T07:40:54;2;2;
73241;PMS5003;65659;49.234;-2.094;2022-12-17T07:43:20;3;3;
73241;PMS5003;65659;49.234;-2.094;2022-12-17T07:45:46;2;2;
73241;PMS5003;65659;49.234;-2.094;2022-12-17T07:48:11;3;3;
73241;PMS5003;65659;49.234;-2.094;2022-12-17T07:50:37;2;2;
73241;PMS5003;65659;49.234;-2.094;2022-12-17T07:53:03;2;2;
73241;PMS5003;65659;49.234;-2.094;2022-12-17T07:55:29;2;2;
73241;PMS5003;65659;49.234;-2.094;2022-12-17T07:57:58;2;2;
73241;PMS5003;65659;49.234;-2.094;2022-12-17T08:00:20;2;2;
73241;PMS5003;65659;49.234;-2.094;2022-12-17T08:02:46;2;2;
73241;PMS5003;65659;49.234;-2.094;2022-12-17T08:05:12;1;1;
73241;PMS5003;65659;49.234;-2.094;2022-12-17T08:07:37;1;1;
73241;PMS5003;65659;49.234;-2.094;2022-12-17T08:10:03;3;3;
73241;PMS5003;65659;49.234;-2.094;2022-12-17T08:12:29;1;1;
73241;PMS5003;65659;49.234;-2.094;2022-12-17T08:14:55;2;2;
73241;PMS5003;65659;49.234;-2.094;2022-12-17T08:17:20;1;1;
73241;PMS5003;65659;49.234;-2.094;2022-12-17T08:19:46;1;1;
73241;PMS5003;65659;49.234;-2.094;2022-12-17T08:22:15;3;3;
73241;PMS5003;65659;49.234;-2.094;2022-12-17T08:24:38;2;2;
73241;PMS5003;65659;49.234;-2.094;2022-12-17T08:27:03;1;1;
73241;PMS5003;65659;49.234;-2.094;2022-12-17T08:29:29;0;0;
73241;PMS5003;65659;49.234;-2.094;2022-12-17T08:31:56;2;1;
73241;PMS5003;65659;49.234;-2.094;2022-12-17T08:34:21;2;1;
73241;PMS5003;65659;49.234;-2.094;2022-12-17T08:36:47;3;2;
73241;PMS5003;65659;49.234;-2.094;2022-12-17T08:39:12;2;2;
73241;PMS5003;65659;49.234;-2.094;2022-12-17T08:41:38;3;2;
73241;PMS5003;65659;49.234;-2.094;2022-12-17T08:44:04;2;2;
73241;PMS5003;65659;49.234;-2.094;2022-12-17T08:46:30;1;1;
73241;PMS5003;65659;49.234;-2.094;2022-12-17T08:48:55;3;3;
73241;PMS5003;65659;49.234;-2.094;2022-12-17T08:51:21;3;3;
73241;PMS5003;65659;49.234;-2.094;2022-12-17T08:53:47;2;2;
73241;PMS5003;65659;49.234;-2.094;2022-12-17T08:56:12;3;2;
73241;PMS5003;65659;49.234;-2.094;2022-12-17T08:58:38;2;2;
73241;PMS5003;65659;49.234;-2.094;2022-12-17T09:01:04;0;0;
73241;PMS5003;65659;49.234;-2.094;2022-12-17T09:03:30;1;1;
73241;PMS5003;65659;49.234;-2.094;2022-12-17T09:05:56;2;2;
73241;PMS5003;65659;49.234;-2.094;2022-12-17T09:08:21;2;2;
73241;PMS5003;65659;49.234;-2.094;2022-12-17T09:10:47;2;2;
73241;PMS5003;65659;49.234;-2.094;2022-12-17T09:13:13;1;1;
73241;PMS5003;65659;49.234;-2.094;2022-12-17T09:15:38;2;2;
73241;PMS5003;65659;49.234;-2.094;2022-12-17T09:18:04;3;3;
73241;PMS5003;65659;49.234;-2.094;2022-12-17T09:20:30;2;2;
73241;PMS5003;65659;49.234;-2.094;2022-12-17T09:22:56;3;2;
73241;PMS5003;65659;49.234;-2.094;2022-12-17T09:25:22;3;3;
73241;PMS5003;65659;49.234;-2.094;2022-12-17T09:27:47;3;3;
73241;PMS5003;65659;49.234;-2.094;2022-12-17T09:30:13;2;2;
73241;PMS5003;65659;49.234;-2.094;2022-12-17T09:32:39;3;2;
73241;PMS5003;65659;49.234;-2.094;2022-12-17T09:35:05;4;3;
73241;PMS5003;65659;49.234;-2.094;2022-12-17T09:37:30;2;2;
73241;PMS5003;65659;49.234;-2.094;2022-12-17T09:39:56;2;2;
73241;PMS5003;65659;49.234;-2.094;2022-12-17T09:42:22;2;2;
73241;PMS5003;65659;49.234;-2.094;2022-12-17T09:44:49;1;1;
73241;PMS5003;65659;49.234;-2.094;2022-12-17T09:47:19;4;4;
73241;PMS5003;65659;49.234;-2.094;2022-12-17T09:49:39;2;2;
73241;PMS5003;65659;49.234;-2.094;2022-12-17T09:52:12;4;3;
73241;PMS5003;65659;49.234;-2.094;2022-12-17T09:54:32;2;2;
73241;PMS5003;65659;49.234;-2.094;2022-12-17T09:56:57;2;2;
73241;PMS5003;65659;49.234;-2.094;2022-12-17T09:59:23;3;2;
73241;PMS5003;65659;49.234;-2.094;2022-12-17T10:01:48;2;2;
73241;PMS5003;65659;49.234;-2.094;2022-12-17T10:04:14;3;2;
73241;PMS5003;65659;49.234;-2.094;2022-12-17T10:06:40;2;2;
73241;PMS5003;65659;49.234;-2.094;2022-12-17T10:09:10;2;2;
73241;PMS5003;65659;49.234;-2.094;2022-12-17T10:11:33;3;3;
73241;PMS5003;65659;49.234;-2.094;2022-12-17T10:13:57;1;1;
73241;PMS5003;65659;49.234;-2.094;2022-12-17T10:16:24;4;4;
73241;PMS5003;65659;49.234;-2.094;2022-12-17T10:18:48;2;2;
73241;PMS5003;65659;49.234;-2.094;2022-12-17T10:21:14;2;2;
73241;PMS5003;65659;49.234;-2.094;2022-12-17T10:23:40;1;1;
73241;PMS5003;65659;49.234;-2.094;2022-12-17T10:26:06;1;1;
73241;PMS5003;65659;49.234;-2.094;2022-12-17T10:28:31;3;3;
73241;PMS5003;65659;49.234;-2.094;2022-12-17T10:30:57;2;2;
73241;PMS5003;65659;49.234;-2.094;2022-12-17T10:33:23;2;2;
73241;PMS5003;65659;49.234;-2.094;2022-12-17T10:35:49;2;2;
73241;PMS5003;65659;49.234;-2.094;2022-12-17T10:38:18;2;2;
73241;PMS5003;65659;49.234;-2.094;2022-12-17T10:40:40;3;3;
73241;PMS5003;65659;49.234;-2.094;2022-12-17T10:45:32;1;1;
73241;PMS5003;65659;49.234;-2.094;2022-12-17T10:47:58;1;1;
73241;PMS5003;65659;49.234;-2.094;2022-12-17T10:50:23;2;2;
73241;PMS5003;65659;49.234;-2.094;2022-12-17T10:52:49;2;2;
73241;PMS5003;65659;49.234;-2.094;2022-12-17T10:55:18;2;2;
73241;PMS5003;65659;49.234;-2.094;2022-12-17T10:57:41;2;2;
73241;PMS5003;65659;49.234;-2.094;2022-12-17T11:02:32;3;3;
73241;PMS5003;65659;49.234;-2.094;2022-12-17T11:04:58;1;1;
73241;PMS5003;65659;49.234;-2.094;2022-12-17T11:07:26;2;2;
73241;PMS5003;65659;49.234;-2.094;2022-12-17T11:09:50;1;1;
73241;PMS5003;65659;49.234;-2.094;2022-12-17T11:12:16;2;2;
73241;PMS5003;65659;49.234;-2.094;2022-12-17T11:14:43;1;1;
73241;PMS5003;65659;49.234;-2.094;2022-12-17T11:17:08;2;2;
73241;PMS5003;65659;49.234;-2.094;2022-12-17T11:19:35;3;2;
73241;PMS5003;65659;49.234;-2.094;2022-12-17T11:22:00;3;2;
73241;PMS5003;65659;49.234;-2.094;2022-12-17T11:24:25;4;2;
73241;PMS5003;65659;49.234;-2.094;2022-12-17T11:26:50;2;2;
73241;PMS5003;65659;49.234;-2.094;2022-12-17T11:29:16;2;2;
73241;PMS5003;65659;49.234;-2.094;2022-12-17T11:31:46;2;2;
73241;PMS5003;65659;49.234;-2.094;2022-12-17T11:34:10;2;2;
73241;PMS5003;65659;49.234;-2.094;2022-12-17T11:36:34;3;3;
73241;PMS5003;65659;49.234;-2.094;2022-12-17T11:39:00;2;2;
73241;PMS5003;65659;49.234;-2.094;2022-12-17T11:41:29;3;2;
73241;PMS5003;65659;49.234;-2.094;2022-12-17T11:43:52;2;2;
73241;PMS5003;65659;49.234;-2.094;2022-12-17T11:46:20;2;2;
73241;PMS5003;65659;49.234;-2.094;2022-12-17T11:48:43;3;3;
73241;PMS5003;65659;49.234;-2.094;2022-12-17T11:51:09;2;2;
73241;PMS5003;65659;49.234;-2.094;2022-12-17T11:53:39;2;2;
73241;PMS5003;65659;49.234;-2.094;2022-12-17T11:56:01;2;2;
73241;PMS5003;65659;49.234;-2.094;2022-12-17T11:58:26;2;2;
73241;PMS5003;65659;49.234;-2.094;2022-12-17T12:00:54;2;2;
73241;PMS5003;65659;49.234;-2.094;2022-12-17T12:03:20;2;2;
73241;PMS5003;65659;49.234;-2.094;2022-12-17T12:05:44;2;2;
73241;PMS5003;65659;49.234;-2.094;2022-12-17T12:08:11;2;2;
73241;PMS5003;65659;49.234;-2.094;2022-12-17T12:10:34;3;3;
73241;PMS5003;65659;49.234;-2.094;2022-12-17T12:13:02;2;2;
73241;PMS5003;65659;49.234;-2.094;2022-12-17T12:15:27;3;3;
73241;PMS5003;65659;49.234;-2.094;2022-12-17T12:17:53;2;2;
73241;PMS5003;65659;49.234;-2.094;2022-12-17T12:20:21;3;3;
73241;PMS5003;65659;49.234;-2.094;2022-12-17T12:22:45;4;3;
73241;PMS5003;65659;49.234;-2.094;2022-12-17T12:25:18;2;2;
73241;PMS5003;65659;49.234;-2.094;2022-12-17T12:27:36;4;3;
73241;PMS5003;65659;49.234;-2.094;2022-12-17T12:30:01;4;4;
73241;PMS5003;65659;49.234;-2.094;2022-12-17T12:32:27;3;3;
73241;PMS5003;65659;49.234;-2.094;2022-12-17T12:34:51;2;2;
73241;PMS5003;65659;49.234;-2.094;2022-12-17T12:37:17;3;3;
73241;PMS5003;65659;49.234;-2.094;2022-12-17T12:39:44;4;4;
73241;PMS5003;65659;49.234;-2.094;2022-12-17T12:42:12;4;3;
73241;PMS5003;65659;49.234;-2.094;2022-12-17T12:44:37;3;3;
73241;PMS5003;65659;49.234;-2.094;2022-12-17T12:47:01;3;3;
73241;PMS5003;65659;49.234;-2.094;2022-12-17T12:49:27;2;2;
73241;PMS5003;65659;49.234;-2.094;2022-12-17T12:51:51;3;2;
73241;PMS5003;65659;49.234;-2.094;2022-12-17T12:54:23;3;3;
73241;PMS5003;65659;49.234;-2.094;2022-12-17T12:56:43;3;3;
73241;PMS5003;65659;49.234;-2.094;2022-12-17T12:59:10;2;2;
73241;PMS5003;65659;49.234;-2.094;2022-12-17T13:01:35;3;3;
73241;PMS5003;65659;49.234;-2.094;2022-12-17T13:04:01;3;3;
73241;PMS5003;65659;49.234;-2.094;2022-12-17T13:08:52;4;4;
73241;PMS5003;65659;49.234;-2.094;2022-12-17T13:11:26;3;3;
73241;PMS5003;65659;49.234;-2.094;2022-12-17T13:13:44;5;5;
73241;PMS5003;65659;49.234;-2.094;2022-12-17T13:18:36;3;3;
73241;PMS5003;65659;49.234;-2.094;2022-12-17T13:21:02;5;5;
73241;PMS5003;65659;49.234;-2.094;2022-12-17T13:23:29;2;2;
73241;PMS5003;65659;49.234;-2.094;2022-12-17T13:28:25;3;3;
73241;PMS5003;65659;49.234;-2.094;2022-12-17T13:30:44;5;4;
73241;PMS5003;65659;49.234;-2.094;2022-12-17T13:33:14;5;5;
73241;PMS5003;65659;49.234;-2.094;2022-12-17T13:35:37;4;4;
73241;PMS5003;65659;49.234;-2.094;2022-12-17T13:38:03;3;3;
73241;PMS5003;65659;49.234;-2.094;2022-12-17T13:40:32;4;4;
73241;PMS5003;65659;49.234;-2.094;2022-12-17T13:42:53;4;4;
73241;PMS5003;65659;49.234;-2.094;2022-12-17T13:45:20;3;3;
73241;PMS5003;65659;49.234;-2.094;2022-12-17T13:52:36;4;4;
73241;PMS5003;65659;49.234;-2.094;2022-12-17T13:55:06;5;5;
73241;PMS5003;65659;49.234;-2.094;2022-12-17T13:57:27;4;4;
73241;PMS5003;65659;49.234;-2.094;2022-12-17T13:59:54;5;5;
73241;PMS5003;65659;49.234;-2.094;2022-12-17T14:02:22;5;5;
73241;PMS5003;65659;49.234;-2.094;2022-12-17T14:04:49;6;6;
73241;PMS5003;65659;49.234;-2.094;2022-12-17T14:07:10;4;4;
73241;PMS5003;65659;49.234;-2.094;2022-12-17T14:09:37;4;4;
73241;PMS5003;65659;49.234;-2.094;2022-12-17T14:12:02;7;7;
73241;PMS5003;65659;49.234;-2.094;2022-12-17T14:14:28;5;5;
73241;PMS5003;65659;49.234;-2.094;2022-12-17T14:16:54;5;5;
73241;PMS5003;65659;49.234;-2.094;2022-12-17T14:19:20;3;3;
73241;PMS5003;65659;49.234;-2.094;2022-12-17T14:21:45;5;5;
73241;PMS5003;65659;49.234;-2.094;2022-12-17T14:24:11;6;5;
73241;PMS5003;65659;49.234;-2.094;2022-12-17T14:29:02;6;5;
73241;PMS5003;65659;49.234;-2.094;2022-12-17T14:31:28;5;5;
73241;PMS5003;65659;49.234;-2.094;2022-12-17T14:34:00;6;6;
73241;PMS5003;65659;49.234;-2.094;2022-12-17T14:36:20;5;5;
73241;PMS5003;65659;49.234;-2.094;2022-12-17T14:38:52;6;5;
73241;PMS5003;65659;49.234;-2.094;2022-12-17T14:41:12;6;5;
73241;PMS5003;65659;49.234;-2.094;2022-12-17T14:43:37;6;6;
73241;PMS5003;65659;49.234;-2.094;2022-12-17T14:46:03;4;3;
73241;PMS5003;65659;49.234;-2.094;2022-12-17T14:48:29;6;5;
73241;PMS5003;65659;49.234;-2.094;2022-12-17T14:50:54;5;5;
73241;PMS5003;65659;49.234;-2.094;2022-12-17T14:53:23;5;5;
73241;PMS5003;65659;49.234;-2.094;2022-12-17T14:55:51;5;5;
73241;PMS5003;65659;49.234;-2.094;2022-12-17T14:58:15;8;8;
73241;PMS5003;65659;49.234;-2.094;2022-12-17T15:00:38;7;6;
73241;PMS5003;65659;49.234;-2.094;2022-12-17T15:03:03;6;5;
73241;PMS5003;65659;49.234;-2.094;2022-12-17T15:05:29;6;6;
73241;PMS5003;65659;49.234;-2.094;2022-12-17T15:07:55;7;6;
73241;PMS5003;65659;49.234;-2.094;2022-12-17T15:10:21;7;7;
73241;PMS5003;65659;49.234;-2.094;2022-12-17T15:12:47;7;7;
73241;PMS5003;65659;49.234;-2.094;2022-12-17T15:15:12;9;9;
73241;PMS5003;65659;49.234;-2.094;2022-12-17T15:17:38;8;8;
73241;PMS5003;65659;49.234;-2.094;2022-12-17T15:20:04;6;6;
73241;PMS5003;65659;49.234;-2.094;2022-12-17T15:22:29;3;3;
73241;PMS5003;65659;49.234;-2.094;2022-12-17T15:24:55;9;8;
73241;PMS5003;65659;49.234;-2.094;2022-12-17T15:27:21;7;7;
73241;PMS5003;65659;49.234;-2.094;2022-12-17T15:29:47;7;7;
73241;PMS5003;65659;49.234;-2.094;2022-12-17T15:32:15;6;6;
73241;PMS5003;65659;49.234;-2.094;2022-12-17T15:34:38;7;7;
73241;PMS5003;65659;49.234;-2.094;2022-12-17T15:37:04;6;6;
73241;PMS5003;65659;49.234;-2.094;2022-12-17T15:39:30;5;5;
73241;PMS5003;65659;49.234;-2.094;2022-12-17T15:41:56;7;7;
73241;PMS5003;65659;49.234;-2.094;2022-12-17T15:44:21;8;8;
73241;PMS5003;65659;49.234;-2.094;2022-12-17T15:46:47;6;6;
73241;PMS5003;65659;49.234;-2.094;2022-12-17T15:49:13;7;7;
73241;PMS5003;65659;49.234;-2.094;2022-12-17T15:51:39;8;8;
73241;PMS5003;65659;49.234;-2.094;2022-12-17T15:54:05;9;8;
73241;PMS5003;65659;49.234;-2.094;2022-12-17T15:56:30;6;5;
73241;PMS5003;65659;49.234;-2.094;2022-12-17T15:58:56;11;11;
73241;PMS5003;65659;49.234;-2.094;2022-12-17T16:01:22;9;8;
73241;PMS5003;65659;49.234;-2.094;2022-12-17T16:03:48;8;8;
73241;PMS5003;65659;49.234;-2.094;2022-12-17T16:06:13;6;6;
73241;PMS5003;65659;49.234;-2.094;2022-12-17T16:08:39;7;7;
73241;PMS5003;65659;49.234;-2.094;2022-12-17T16:11:06;8;8;
73241;PMS5003;65659;49.234;-2.094;2022-12-17T16:13:31;6;6;
73241;PMS5003;65659;49.234;-2.094;2022-12-17T16:15:57;6;6;
73241;PMS5003;65659;49.234;-2.094;2022-12-17T16:18:22;7;7;
73241;PMS5003;65659;49.234;-2.094;2022-12-17T16:20:48;7;7;
73241;PMS5003;65659;49.234;-2.094;2022-12-17T16:23:14;10;10;
73241;PMS5003;65659;49.234;-2.094;2022-12-17T16:25:40;8;8;
73241;PMS5003;65659;49.234;-2.094;2022-12-17T16:28:05;7;7;
73241;PMS5003;65659;49.234;-2.094;2022-12-17T16:30:31;7;7;
73241;PMS5003;65659;49.234;-2.094;2022-12-17T16:32:57;7;7;
73241;PMS5003;65659;49.234;-2.094;2022-12-17T16:35:23;7;7;
73241;PMS5003;65659;49.234;-2.094;2022-12-17T16:37:48;9;9;
73241;PMS5003;65659;49.234;-2.094;2022-12-17T16:40:14;7;7;
73241;PMS5003;65659;49.234;-2.094;2022-12-17T16:42:40;7;7;
73241;PMS5003;65659;49.234;-2.094;2022-12-17T16:45:06;10;9;